Time;durP1;ratioP1;P1;durP2;ratioP2;P2;SDS_P1;SDS_P2;PMS_P1;PMS_P2;Temp;Humidity;BMP_temperature;BMP_pressure;BME280_temperature;BME280_humidity;BME280_pressure;Samples;Min_cycle;Max_cycle;Signal;HPM_P1;HPM_P2
2022/11/12 00:02:10;;;;;;;9.68;6.72;;;;;;;;;;5027031;28;20111;-71
2022/11/12 00:04:54;;;;;;;9.40;6.90;;;;;;;;;;5022439;28;20091;-72
2022/11/12 00:07:39;;;;;;;9.52;6.65;;;;;;;;;;5024686;28;20048;-72
2022/11/12 00:10:23;;;;;;;8.88;6.18;;;;;;;;;;5022507;28;20123;-72
2022/11/12 00:13:08;;;;;;;9.88;7.60;;;;;;;;;;5027093;28;20131;-71
2022/11/12 00:15:52;;;;;;;10.45;6.63;;;;;;;;;;5032240;28;20052;-72
2022/11/12 00:18:36;;;;;;;9.07;6.28;;;;;;;;;;5027728;28;20056;-72
2022/11/12 00:21:21;;;;;;;9.10;6.57;;;;;;;;;;5029352;28;20070;-72
2022/11/12 00:24:06;;;;;;;9.32;5.80;;;;;;;;;;5025131;28;20507;-72
2022/11/12 00:26:50;;;;;;;10.93;6.47;;;;;;;;;;5029041;28;20402;-72
2022/11/12 00:29:34;;;;;;;10.23;6.22;;;;;;;;;;5026884;28;20497;-72
2022/11/12 00:32:19;;;;;;;10.00;7.05;;;;;;;;;;5023447;28;20091;-72
2022/11/12 00:35:05;;;;;;;11.02;7.05;;;;;;;;;;5021799;28;20053;-72
2022/11/12 00:37:55;;;;;;;10.02;6.68;;;;;;;;;;5024963;28;20092;-71
2022/11/12 00:40:41;;;;;;;10.52;6.93;;;;;;;;;;5023420;28;20129;-72
2022/11/12 00:43:26;;;;;;;10.95;7.05;;;;;;;;;;5021645;28;20072;-72
2022/11/12 00:46:11;;;;;;;11.20;6.78;;;;;;;;;;5027746;28;20136;-72
2022/11/12 00:48:55;;;;;;;10.93;7.53;;;;;;;;;;5025595;28;20057;-72
2022/11/12 00:51:40;;;;;;;10.23;6.80;;;;;;;;;;5021475;28;20566;-72
2022/11/12 00:54:24;;;;;;;11.18;7.18;;;;;;;;;;5019803;28;20048;-72
2022/11/12 00:57:08;;;;;;;11.52;6.82;;;;;;;;;;5029058;28;20052;-73
2022/11/12 00:59:53;;;;;;;11.73;7.10;;;;;;;;;;5024690;28;20064;-72
2022/11/12 01:02:37;;;;;;;11.02;6.60;;;;;;;;;;5025986;28;20108;-72
2022/11/12 01:05:22;;;;;;;9.70;6.63;;;;;;;;;;5023112;28;20056;-71
2022/11/12 01:08:06;;;;;;;11.05;6.53;;;;;;;;;;5015596;28;20506;-72
2022/11/12 01:10:50;;;;;;;10.30;6.70;;;;;;;;;;5023306;28;20052;-72
2022/11/12 01:13:36;;;;;;;11.07;6.78;;;;;;;;;;5027122;28;20112;-72
2022/11/12 01:16:23;;;;;;;11.75;6.47;;;;;;;;;;5020123;28;20057;-72
2022/11/12 01:19:09;;;;;;;9.90;6.47;;;;;;;;;;5024773;28;20095;-72
2022/11/12 01:21:54;;;;;;;9.63;6.55;;;;;;;;;;5029218;28;20441;-72
2022/11/12 01:24:38;;;;;;;12.25;7.25;;;;;;;;;;5022943;28;20559;-72
2022/11/12 01:27:23;;;;;;;11.10;6.63;;;;;;;;;;5027158;28;20053;-71
2022/11/12 01:30:08;;;;;;;11.27;7.07;;;;;;;;;;5028275;28;20041;-71
2022/11/12 01:32:52;;;;;;;12.43;6.97;;;;;;;;;;5023705;28;20471;-71
2022/11/12 01:35:36;;;;;;;11.00;7.18;;;;;;;;;;5024746;28;20551;-72
2022/11/12 01:38:21;;;;;;;12.10;7.45;;;;;;;;;;5027964;28;20092;-72
2022/11/12 01:41:07;;;;;;;10.80;6.75;;;;;;;;;;5019111;28;20040;-72
2022/11/12 01:44:10;;;;;;;14.18;7.68;;;;;;;;;;5023268;28;20403;-72
2022/11/12 01:46:58;;;;;;;18.95;7.15;;;;;;;;;;5016948;28;20051;-71
2022/11/12 01:50:00;;;;;;;11.15;6.40;;;;;;;;;;5028874;28;20103;-72
2022/11/12 01:53:04;;;;;;;10.77;6.55;;;;;;;;;;5025210;28;20091;-71
2022/11/12 01:55:48;;;;;;;;;;;;;;;;;;5024768;28;20112;-71
2022/11/12 01:58:33;;;;;;;;;;;;;;;;;;5024900;28;19924;-71
2022/11/12 02:01:17;;;;;;;13.43;7.15;;;;;;;;;;5026644;28;19967;-71
2022/11/12 02:04:02;;;;;;;12.32;8.35;;;;;;;;;;5018883;28;20053;-72
2022/11/12 02:06:47;;;;;;;10.30;7.00;;;;;;;;;;5026728;28;20056;-73
2022/11/12 02:09:32;;;;;;;12.20;8.02;;;;;;;;;;5029588;28;20072;-71
2022/11/12 02:15:20;;;;;;;11.50;8.25;;;;;;;;;;5028281;28;20060;-72
2022/11/12 02:18:05;;;;;;;12.40;8.68;;;;;;;;;;5024946;28;20080;-71
2022/11/12 02:20:55;;;;;;;12.13;7.38;;;;;;;;;;5032217;28;20060;-72
2022/11/12 02:23:42;;;;;;;11.63;7.85;;;;;;;;;;5026591;28;20388;-72
2022/11/12 02:26:30;;;;;;;11.40;7.70;;;;;;;;;;5030317;28;20068;-72
2022/11/12 02:29:14;;;;;;;14.40;10.55;;;;;;;;;;5015664;28;20032;-72
2022/11/12 02:31:59;;;;;;;19.67;11.07;;;;;;;;;;5028999;28;20541;-70
2022/11/12 02:34:44;;;;;;;12.75;8.35;;;;;;;;;;5003733;28;20092;-72
2022/11/12 02:37:29;;;;;;;12.93;8.65;;;;;;;;;;5030126;28;20044;-71
2022/11/12 02:40:13;;;;;;;14.48;8.07;;;;;;;;;;5030318;28;20095;-71
2022/11/12 02:42:58;;;;;;;10.68;6.88;;;;;;;;;;5028268;28;20406;-71
2022/11/12 02:45:43;;;;;;;10.80;7.38;;;;;;;;;;5029113;28;20513;-72
2022/11/12 02:48:27;;;;;;;12.43;7.43;;;;;;;;;;5029906;28;20094;-70
2022/11/12 02:51:12;;;;;;;10.77;7.25;;;;;;;;;;5026925;28;20052;-70
2022/11/12 02:53:56;;;;;;;12.40;7.18;;;;;;;;;;5027957;28;20051;-69
2022/11/12 02:56:41;;;;;;;11.63;6.05;;;;;;;;;;5031601;28;20442;-71
2022/11/12 02:59:25;;;;;;;10.80;6.28;;;;;;;;;;5027421;28;20111;-72
2022/11/12 03:02:09;;;;;;;8.20;5.30;;;;;;;;;;5028481;28;20047;-71
2022/11/12 03:04:54;;;;;;;6.88;4.53;;;;;;;;;;5030424;28;20044;-71
2022/11/12 03:07:38;;;;;;;9.30;5.20;;;;;;;;;;5032475;28;20052;-71
2022/11/12 03:10:24;;;;;;;6.32;3.40;;;;;;;;;;5028223;28;20107;-70
2022/11/12 03:13:08;;;;;;;4.72;3.13;;;;;;;;;;5027349;28;20415;-71
2022/11/12 03:15:59;;;;;;;5.93;3.35;;;;;;;;;;5029749;28;20057;-71
2022/11/12 03:18:43;;;;;;;6.28;3.50;;;;;;;;;;5028696;28;20402;-72
2022/11/12 03:21:29;;;;;;;4.72;2.67;;;;;;;;;;5027707;28;20053;-71
2022/11/12 03:24:13;;;;;;;3.10;2.10;;;;;;;;;;5028756;28;20119;-71
2022/11/12 03:26:58;;;;;;;3.35;2.08;;;;;;;;;;5030171;28;20056;-71
2022/11/12 03:29:42;;;;;;;3.75;1.90;;;;;;;;;;5027996;28;20183;-71
2022/11/12 03:32:27;;;;;;;5.75;2.03;;;;;;;;;;5017099;28;20111;-71
2022/11/12 03:35:11;;;;;;;3.55;2.35;;;;;;;;;;5031314;28;20128;-72
2022/11/12 03:37:56;;;;;;;3.70;2.35;;;;;;;;;;5028708;28;20068;-71
2022/11/12 03:40:40;;;;;;;4.80;2.85;;;;;;;;;;5022013;28;20552;-70
2022/11/12 03:43:25;;;;;;;6.40;3.95;;;;;;;;;;5028638;28;20426;-71
2022/11/12 03:46:09;;;;;;;7.15;4.40;;;;;;;;;;5024860;28;20410;-71
2022/11/12 03:48:53;;;;;;;7.50;4.72;;;;;;;;;;5024652;28;20048;-71
2022/11/12 03:51:38;;;;;;;8.40;5.65;;;;;;;;;;5023608;28;20079;-72
2022/11/12 03:54:22;;;;;;;8.32;4.28;;;;;;;;;;5027295;28;20123;-72
2022/11/12 03:57:07;;;;;;;5.85;3.50;;;;;;;;;;5028028;28;20142;-71
2022/11/12 03:59:51;;;;;;;5.35;3.70;;;;;;;;;;5031156;28;20128;-72
2022/11/12 04:02:36;;;;;;;5.20;3.30;;;;;;;;;;5016507;28;20609;-72
2022/11/12 04:08:35;;;;;;;4.57;2.88;;;;;;;;;;5033007;28;20589;-71
2022/11/12 04:11:20;;;;;;;4.43;2.67;;;;;;;;;;5014320;28;20068;-71
2022/11/12 04:14:05;;;;;;;4.97;2.30;;;;;;;;;;5023231;28;20055;-72
2022/11/12 04:22:55;;;;;;;3.40;2.08;;;;;;;;;;5022131;28;20099;-72
2022/11/12 04:30:14;;;;;;;3.03;1.90;;;;;;;;;;5021729;28;20111;-71
2022/11/12 04:31:47;;;;;;;3.67;2.15;;;;;;;;;;5031483;28;20106;-71
2022/11/12 04:34:33;;;;;;;2.60;1.88;;;;;;;;;;5017577;28;20119;-71
2022/11/12 04:37:19;;;;;;;3.50;2.13;;;;;;;;;;5032353;28;20055;-71
2022/11/12 04:44:58;;;;;;;3.53;1.90;;;;;;;;;;5026091;28;20041;-71
2022/11/12 04:46:13;;;;;;;4.88;2.33;;;;;;;;;;5032395;28;20083;-72
2022/11/12 04:48:57;;;;;;;4.72;2.63;;;;;;;;;;5031837;28;20115;-71
2022/11/12 04:54:45;;;;;;;3.97;2.47;;;;;;;;;;5020077;28;20092;-71
2022/11/12 04:57:29;;;;;;;5.35;2.92;;;;;;;;;;5029897;28;20095;-70
2022/11/12 05:00:13;;;;;;;5.38;3.08;;;;;;;;;;5023714;28;20194;-70
2022/11/12 05:02:58;;;;;;;5.20;3.42;;;;;;;;;;5025022;28;20137;-71
2022/11/12 05:05:42;;;;;;;4.82;3.40;;;;;;;;;;5011336;28;20053;-72
2022/11/12 05:08:26;;;;;;;7.35;3.97;;;;;;;;;;5012352;28;20557;-71
2022/11/12 05:11:11;;;;;;;6.40;4.15;;;;;;;;;;5017473;28;20049;-72
2022/11/12 05:13:55;;;;;;;4.05;2.53;;;;;;;;;;4994825;28;26318;-72
2022/11/12 05:16:40;;;;;;;3.90;2.65;;;;;;;;;;5029433;28;20517;-70
2022/11/12 05:19:24;;;;;;;3.88;2.15;;;;;;;;;;5031305;28;20048;-71
2022/11/12 05:22:09;;;;;;;2.72;1.77;;;;;;;;;;5030096;28;20533;-72
2022/11/12 05:24:54;;;;;;;3.00;2.00;;;;;;;;;;5032049;28;20110;-72
2022/11/12 05:27:38;;;;;;;4.22;2.50;;;;;;;;;;5031768;28;20052;-72
2022/11/12 05:30:23;;;;;;;3.65;2.38;;;;;;;;;;5031574;28;20052;-73
2022/11/12 05:33:07;;;;;;;4.22;1.80;;;;;;;;;;5031774;28;20056;-72
2022/11/12 05:35:55;;;;;;;5.45;3.65;;;;;;;;;;5031488;28;20103;-73
2022/11/12 05:38:39;;;;;;;8.85;6.72;;;;;;;;;;5031767;28;20515;-72
2022/11/12 05:41:24;;;;;;;9.85;6.13;;;;;;;;;;5031796;28;20056;-72
2022/11/12 05:44:09;;;;;;;8.32;5.53;;;;;;;;;;5037909;28;20045;-73
2022/11/12 05:46:54;;;;;;;13.10;7.78;;;;;;;;;;5038083;28;20099;-72
2022/11/12 05:49:38;;;;;;;11.90;7.38;;;;;;;;;;5038224;28;20486;-72
2022/11/12 05:52:22;;;;;;;13.40;7.85;;;;;;;;;;5037874;28;20052;-71
2022/11/12 05:55:07;;;;;;;13.43;7.53;;;;;;;;;;5036497;28;20053;-72
2022/11/12 05:57:51;;;;;;;14.32;8.25;;;;;;;;;;5038247;28;20056;-72
2022/11/12 06:00:38;;;;;;;13.32;7.95;;;;;;;;;;5037122;28;20402;-72
2022/11/12 06:03:23;;;;;;;14.00;8.25;;;;;;;;;;5037942;28;20269;-71
2022/11/12 06:06:07;;;;;;;16.73;8.15;;;;;;;;;;5038037;28;20080;-72
2022/11/12 06:08:53;;;;;;;12.80;8.43;;;;;;;;;;5036143;28;20545;-70
2022/11/12 06:11:37;;;;;;;11.90;7.85;;;;;;;;;;5032094;28;20049;-71
2022/11/12 06:14:21;;;;;;;13.43;8.65;;;;;;;;;;5035011;28;20056;-70
2022/11/12 06:17:06;;;;;;;13.18;8.68;;;;;;;;;;5033963;28;20045;-72
2022/11/12 06:19:50;;;;;;;13.48;8.27;;;;;;;;;;5036686;28;20455;-71
2022/11/12 06:22:35;;;;;;;15.65;9.35;;;;;;;;;;5037344;28;20115;-72
2022/11/12 06:25:19;;;;;;;16.45;10.63;;;;;;;;;;5036967;28;20044;-70
2022/11/12 06:28:04;;;;;;;15.35;10.15;;;;;;;;;;5037763;28;20047;-72
2022/11/12 06:30:48;;;;;;;14.32;9.18;;;;;;;;;;5036707;28;20156;-72
2022/11/12 06:34:08;;;;;;;18.60;10.18;;;;;;;;;;5037619;28;20044;-73
2022/11/12 06:36:53;;;;;;;15.02;9.63;;;;;;;;;;4974616;28;20092;-71
2022/11/12 06:39:38;;;;;;;16.20;9.93;;;;;;;;;;5016381;28;20104;-72
2022/11/12 06:42:22;;;;;;;18.25;9.07;;;;;;;;;;5015949;28;20060;-75
2022/11/12 06:45:07;;;;;;;18.42;10.32;;;;;;;;;;5003300;28;20132;-76
2022/11/12 06:47:51;;;;;;;19.50;12.00;;;;;;;;;;5014772;28;20107;-73
2022/11/12 06:50:36;;;;;;;20.42;12.77;;;;;;;;;;4996651;28;20098;-74
2022/11/12 06:53:20;;;;;;;18.35;12.40;;;;;;;;;;4996356;28;20049;-74
2022/11/12 06:56:06;;;;;;;20.80;13.02;;;;;;;;;;4997372;28;20577;-74
2022/11/12 06:58:50;;;;;;;20.50;13.63;;;;;;;;;;5012980;28;20104;-75
2022/11/12 07:01:35;;;;;;;20.23;14.45;;;;;;;;;;5011120;28;20419;-75
2022/11/12 07:04:19;;;;;;;25.00;16.00;;;;;;;;;;5012252;28;20053;-75
2022/11/12 07:07:03;;;;;;;26.70;18.38;;;;;;;;;;5018573;28;20629;-75
2022/11/12 07:09:48;;;;;;;22.38;14.65;;;;;;;;;;5034499;28;20406;-74
2022/11/12 07:12:32;;;;;;;27.08;13.90;;;;;;;;;;5033048;28;20095;-75
2022/11/12 07:15:17;;;;;;;18.23;12.98;;;;;;;;;;5034711;28;20056;-74
2022/11/12 07:18:02;;;;;;;19.90;12.63;;;;;;;;;;5034707;28;20580;-74
2022/11/12 07:20:46;;;;;;;18.85;12.60;;;;;;;;;;5018021;28;20071;-75
2022/11/12 07:23:34;;;;;;;21.02;12.90;;;;;;;;;;5034513;28;20519;-74
2022/11/12 07:26:21;;;;;;;25.67;15.65;;;;;;;;;;5033497;28;20110;-74
2022/11/12 07:29:06;;;;;;;20.35;14.52;;;;;;;;;;5031743;28;21048;-74
2022/11/12 07:31:50;;;;;;;21.70;14.82;;;;;;;;;;5017514;28;20056;-74
2022/11/12 07:34:34;;;;;;;31.13;15.73;;;;;;;;;;5029986;28;20140;-75
2022/11/12 07:37:19;;;;;;;26.75;15.98;;;;;;;;;;5032214;28;20179;-75
2022/11/12 07:40:04;;;;;;;25.35;14.65;;;;;;;;;;5018734;28;20198;-73
2022/11/12 07:42:48;;;;;;;26.77;15.48;;;;;;;;;;5032367;28;20068;-74
2022/11/12 07:45:33;;;;;;;28.27;14.73;;;;;;;;;;5030668;28;20044;-76
2022/11/12 07:48:17;;;;;;;33.33;15.02;;;;;;;;;;5002158;28;20056;-76
2022/11/12 07:51:06;;;;;;;42.40;17.42;;;;;;;;;;5029417;28;20064;-75
2022/11/12 07:53:56;;;;;;;27.80;15.07;;;;;;;;;;5029567;28;20060;-73
2022/11/12 07:56:41;;;;;;;29.95;14.85;;;;;;;;;;5031378;28;20103;-75
2022/11/12 07:59:25;;;;;;;24.88;13.63;;;;;;;;;;5028893;28;20075;-76
2022/11/12 08:02:10;;;;;;;21.23;12.95;;;;;;;;;;5030205;28;20070;-76
2022/11/12 08:04:54;;;;;;;20.45;13.13;;;;;;;;;;5031089;28;20139;-74
2022/11/12 08:07:39;;;;;;;20.33;13.98;;;;;;;;;;5030701;28;20044;-74
2022/11/12 08:10:23;;;;;;;23.55;15.23;;;;;;;;;;5031266;28;20092;-75
2022/11/12 08:13:08;;;;;;;23.77;14.50;;;;;;;;;;5027708;28;20049;-76
2022/11/12 08:15:58;;;;;;;21.33;13.13;;;;;;;;;;5028431;28;20084;-75
2022/11/12 08:18:44;;;;;;;25.25;14.32;;;;;;;;;;5028038;28;20060;-76
2022/11/12 08:21:28;;;;;;;21.50;12.88;;;;;;;;;;5030373;28;20051;-76
2022/11/12 08:24:13;;;;;;;22.15;13.52;;;;;;;;;;5015915;28;20063;-77
2022/11/12 08:26:57;;;;;;;20.58;12.80;;;;;;;;;;5015241;28;20124;-76
2022/11/12 08:29:42;;;;;;;19.77;12.40;;;;;;;;;;5030967;28;20109;-75
2022/11/12 08:32:26;;;;;;;17.38;11.93;;;;;;;;;;5017181;28;20047;-78
2022/11/12 08:35:10;;;;;;;19.30;12.43;;;;;;;;;;5033548;28;20075;-78
2022/11/12 08:38:03;;;;;;;14.90;10.57;;;;;;;;;;5013111;28;20526;-78
2022/11/12 08:40:48;;;;;;;16.25;10.52;;;;;;;;;;5032166;28;20044;-76
2022/11/12 08:43:33;;;;;;;16.30;11.13;;;;;;;;;;5032228;28;20060;-76
2022/11/12 08:46:17;;;;;;;17.02;10.05;;;;;;;;;;5016055;28;20525;-75
2022/11/12 08:49:02;;;;;;;14.93;10.23;;;;;;;;;;5011760;28;20553;-79
2022/11/12 08:51:46;;;;;;;15.65;9.50;;;;;;;;;;5031549;28;20056;-76
2022/11/12 08:54:30;;;;;;;14.98;9.27;;;;;;;;;;5031908;28;20513;-78
2022/11/12 08:57:16;;;;;;;15.32;9.73;;;;;;;;;;5018036;28;20048;-78
2022/11/12 09:00:01;;;;;;;12.38;7.38;;;;;;;;;;5018103;28;20048;-78
2022/11/12 09:02:47;;;;;;;12.07;7.40;;;;;;;;;;5031956;28;20106;-79
2022/11/12 09:05:35;;;;;;;7.72;4.70;;;;;;;;;;5034005;28;20111;-78
2022/11/12 09:08:22;;;;;;;9.13;5.47;;;;;;;;;;5018035;28;20052;-77
2022/11/12 09:11:07;;;;;;;11.50;5.68;;;;;;;;;;5032173;28;20055;-77
2022/11/12 09:13:53;;;;;;;14.95;4.97;;;;;;;;;;5030785;28;20075;-77
2022/11/12 09:16:39;;;;;;;7.43;3.42;;;;;;;;;;5031274;28;20076;-76
2022/11/12 09:19:23;;;;;;;8.23;3.20;;;;;;;;;;5017781;28;20510;-77
2022/11/12 09:22:08;;;;;;;5.40;2.58;;;;;;;;;;5032037;28;20064;-75
2022/11/12 09:24:52;;;;;;;6.32;2.20;;;;;;;;;;5020791;28;20103;-76
2022/11/12 09:27:37;;;;;;;3.08;2.30;;;;;;;;;;5027800;28;20072;-76
2022/11/12 09:30:22;;;;;;;9.60;2.83;;;;;;;;;;5028596;28;20136;-78
2022/11/12 09:33:08;;;;;;;11.30;2.88;;;;;;;;;;4997544;28;20112;-77
2022/11/12 09:35:59;;;;;;;6.45;2.78;;;;;;;;;;5012307;28;20129;-76
2022/11/12 09:38:43;;;;;;;9.20;2.90;;;;;;;;;;5030176;28;20052;-78
2022/11/12 09:41:40;;;;;;;8.38;3.58;;;;;;;;;;5033129;28;20080;-79
2022/11/12 09:44:24;;;;;;;7.53;2.78;;;;;;;;;;5032013;28;20409;-78
2022/11/12 09:47:13;;;;;;;9.20;3.25;;;;;;;;;;5031313;28;20119;-76
2022/11/12 09:50:23;;;;;;;9.15;3.40;;;;;;;;;;5037029;28;20052;-77
2022/11/12 09:53:45;;;;;;;6.22;3.25;;;;;;;;;;5008405;28;20056;-77
2022/11/12 09:56:32;;;;;;;18.15;4.10;;;;;;;;;;5006123;28;20044;-76
2022/11/12 09:59:17;;;;;;;9.65;3.03;;;;;;;;;;5029762;28;20107;-76
2022/11/12 10:02:37;;;;;;;3.55;2.55;;;;;;;;;;5031753;28;20064;-75
2022/11/12 10:05:32;;;;;;;12.65;3.47;;;;;;;;;;5031493;28;20148;-78
2022/11/12 10:08:33;;;;;;;9.57;4.35;;;;;;;;;;5046141;28;20056;-77
2022/11/12 10:12:30;;;;;;;19.67;6.28;;;;;;;;;;5052414;28;20106;-76
2022/11/12 10:18:41;;;;;;;10.68;5.63;;;;;;;;;;5051008;28;20044;-75
2022/11/12 10:21:46;;;;;;;10.30;6.15;;;;;;;;;;5030318;28;20080;-75
2022/11/12 10:24:36;;;;;;;9.63;5.82;;;;;;;;;;5031648;28;20076;-74
2022/11/12 10:27:25;;;;;;;9.85;4.65;;;;;;;;;;5022988;28;20048;-77
2022/11/12 10:30:27;;;;;;;6.88;3.83;;;;;;;;;;5043928;28;20125;-76
2022/11/12 10:33:14;;;;;;;10.30;4.07;;;;;;;;;;5040995;28;20506;-75
2022/11/12 10:36:16;;;;;;;7.63;3.35;;;;;;;;;;5023709;28;20044;-74
2022/11/12 10:39:06;;;;;;;3.53;2.13;;;;;;;;;;5015886;28;20069;-78
2022/11/12 10:42:11;;;;;;;3.63;2.28;;;;;;;;;;5019077;28;20419;-78
2022/11/12 10:45:19;;;;;;;5.55;2.90;;;;;;;;;;5015157;28;20133;-77
2022/11/12 10:59:22;;;;;;;4.38;2.83;;;;;;;;;;5035068;28;20136;-77
2022/11/12 11:02:17;;;;;;;5.65;2.75;;;;;;;;;;5035768;28;20048;-75
2022/11/12 11:05:36;;;;;;;7.75;3.22;;;;;;;;;;5035453;28;20394;-76
2022/11/12 11:08:44;;;;;;;6.40;3.08;;;;;;;;;;5046094;28;20071;-76
2022/11/12 11:11:30;;;;;;;7.93;3.30;;;;;;;;;;5055345;28;20367;-76
2022/11/12 11:14:21;;;;;;;8.52;2.72;;;;;;;;;;5054634;28;20063;-77
2022/11/12 11:17:17;;;;;;;12.60;4.10;;;;;;;;;;5017923;28;20464;-73
2022/11/12 11:20:14;;;;;;;5.43;3.20;;;;;;;;;;5034969;28;20529;-78
2022/11/12 11:23:05;;;;;;;8.38;3.75;;;;;;;;;;5048115;28;20052;-76
2022/11/12 11:25:53;;;;;;;8.27;3.90;;;;;;;;;;5049951;28;20194;-74
2022/11/12 11:28:54;;;;;;;8.25;5.18;;;;;;;;;;5054643;28;20095;-75
2022/11/12 11:45:00;;;;;;;5.93;3.38;;;;;;;;;;4334754;28;22199;-71
2022/11/12 11:48:16;;;;;;;10.18;3.50;;;;;;;;;;5001805;28;20538;-72
2022/11/12 11:51:20;;;;;;;6.18;3.00;;;;;;;;;;4971023;28;20041;-71
2022/11/12 11:54:42;;;;;;;5.13;3.55;;;;;;;;;;4971731;28;21057;-71
2022/11/12 11:57:42;;;;;;;5.25;3.15;;;;;;;;;;4893695;29;20079;-70
2022/11/12 12:01:04;;;;;;;4.60;3.05;;;;;;;;;;4953713;28;20078;-72
2022/11/12 12:04:06;;;;;;;4.90;2.83;;;;;;;;;;4953774;28;20101;-71
2022/11/12 12:07:16;;;;;;;4.20;2.60;;;;;;;;;;4966860;28;20150;-72
2022/11/12 12:10:19;;;;;;;5.10;3.00;;;;;;;;;;4959032;28;20086;-72
2022/11/12 12:13:31;;;;;;;4.20;2.80;;;;;;;;;;4967838;28;20555;-71
2022/11/12 12:16:25;;;;;;;4.38;2.67;;;;;;;;;;4972496;28;20054;-69
2022/11/12 12:19:34;;;;;;;4.97;3.10;;;;;;;;;;4969738;28;20045;-70
2022/11/12 12:22:27;;;;;;;4.70;3.08;;;;;;;;;;4963121;28;20054;-69
2022/11/12 12:25:21;;;;;;;5.70;2.70;;;;;;;;;;4956170;28;20058;-71
2022/11/12 12:28:15;;;;;;;;;;;;;;;;;;4973739;28;20130;-70
2022/11/12 12:31:06;;;;;;;4.53;2.50;;;;;;;;;;4973540;28;20352;-70
2022/11/12 12:33:55;;;;;;;4.90;3.22;;;;;;;;;;4973741;28;20050;-72
2022/11/12 12:36:41;;;;;;;5.22;3.05;;;;;;;;;;4973081;28;20058;-72
2022/11/12 12:39:47;;;;;;;4.75;3.50;;;;;;;;;;4972652;28;20049;-72
2022/11/12 12:43:19;;;;;;;4.25;3.10;;;;;;;;;;4965309;28;20093;-72
2022/11/12 12:46:05;;;;;;;10.70;5.88;;;;;;;;;;4931949;29;20531;-70
2022/11/12 12:48:52;;;;;;;9.02;4.47;;;;;;;;;;4929473;29;20058;-71
2022/11/12 12:51:37;;;;;;;7.78;3.45;;;;;;;;;;4967485;28;20088;-71
2022/11/12 12:54:33;;;;;;;11.88;4.90;;;;;;;;;;4971943;28;20562;-70
2022/11/12 12:57:38;;;;;;;6.97;4.22;;;;;;;;;;4971475;28;20093;-72
2022/11/12 13:00:31;;;;;;;5.70;3.95;;;;;;;;;;4971085;28;20130;-70
2022/11/12 13:03:44;;;;;;;7.82;4.97;;;;;;;;;;4972815;28;20105;-71
2022/11/12 13:06:38;;;;;;;10.77;6.32;;;;;;;;;;4971451;28;20345;-71
2022/11/12 13:09:25;;;;;;;9.40;5.50;;;;;;;;;;4967620;28;20098;-70
2022/11/12 13:15:10;;;;;;;11.20;6.00;;;;;;;;;;4967018;28;20073;-71
2022/11/12 13:17:54;;;;;;;7.15;4.43;;;;;;;;;;4972973;28;20497;-72
2022/11/12 13:20:40;;;;;;;12.63;5.45;;;;;;;;;;4973103;28;20060;-71
2022/11/12 13:24:06;;;;;;;6.80;4.28;;;;;;;;;;4971358;28;20140;-70
2022/11/12 13:26:54;;;;;;;8.98;4.10;;;;;;;;;;4971424;28;20069;-70
2022/11/12 13:29:41;;;;;;;6.40;3.65;;;;;;;;;;4957894;28;20101;-71
2022/11/12 13:32:33;;;;;;;4.75;3.10;;;;;;;;;;4955074;28;20077;-71
2022/11/12 13:35:20;;;;;;;7.65;3.38;;;;;;;;;;4973180;28;20443;-70
2022/11/12 13:38:08;;;;;;;4.25;2.72;;;;;;;;;;4974395;28;20461;-71
2022/11/12 13:41:15;;;;;;;5.80;2.67;;;;;;;;;;4973045;28;20046;-71
2022/11/12 13:44:05;;;;;;;4.90;2.47;;;;;;;;;;4967740;28;20170;-72
2022/11/12 13:46:51;;;;;;;5.22;2.78;;;;;;;;;;4952205;28;20112;-71
2022/11/12 13:49:36;;;;;;;3.63;2.40;;;;;;;;;;4972766;28;20046;-70
2022/11/12 13:52:22;;;;;;;5.00;2.90;;;;;;;;;;4961831;28;20050;-72
2022/11/12 13:55:13;;;;;;;5.22;3.08;;;;;;;;;;4970312;28;20101;-70
2022/11/12 13:57:57;;;;;;;3.83;2.90;;;;;;;;;;4962381;28;20054;-70
2022/11/12 14:00:52;;;;;;;3.83;2.45;;;;;;;;;;4968461;28;20105;-71
2022/11/12 14:03:43;;;;;;;5.90;3.70;;;;;;;;;;4972978;28;20118;-72
2022/11/12 14:06:35;;;;;;;7.32;3.35;;;;;;;;;;4974454;28;20097;-70
2022/11/12 14:09:29;;;;;;;3.20;2.25;;;;;;;;;;4976613;28;20516;-70
2022/11/12 14:12:25;;;;;;;3.57;2.63;;;;;;;;;;4967553;28;20108;-71
2022/11/12 14:15:24;;;;;;;4.47;2.80;;;;;;;;;;4973195;28;20093;-71
2022/11/12 14:18:21;;;;;;;4.00;2.15;;;;;;;;;;4966533;28;20532;-70
2022/11/12 14:21:10;;;;;;;6.75;3.38;;;;;;;;;;4972881;28;20548;-70
2022/11/12 14:23:54;;;;;;;3.83;2.60;;;;;;;;;;4973920;28;20057;-70
2022/11/12 14:26:41;;;;;;;5.07;2.83;;;;;;;;;;4976186;28;20077;-71
2022/11/12 14:29:25;;;;;;;4.28;2.63;;;;;;;;;;4976202;28;20392;-71
2022/11/12 14:32:11;;;;;;;6.22;3.53;;;;;;;;;;4976568;28;20061;-71
2022/11/12 14:34:55;;;;;;;5.97;4.35;;;;;;;;;;4958767;28;20046;-71
2022/11/12 14:37:46;;;;;;;7.22;4.25;;;;;;;;;;4975667;28;20089;-70
2022/11/12 14:40:35;;;;;;;5.75;4.30;;;;;;;;;;4960970;28;20097;-70
2022/11/12 14:43:44;;;;;;;7.68;4.25;;;;;;;;;;4973510;28;20563;-70
2022/11/12 14:46:31;;;;;;;7.78;4.28;;;;;;;;;;4975429;28;20464;-70
2022/11/12 14:49:41;;;;;;;6.55;3.80;;;;;;;;;;4961520;28;20077;-71
2022/11/12 14:52:34;;;;;;;5.20;2.95;;;;;;;;;;4973105;28;20076;-71
2022/11/12 14:55:23;;;;;;;6.30;3.10;;;;;;;;;;4958057;28;20098;-72
2022/11/12 14:58:15;;;;;;;8.07;3.83;;;;;;;;;;4975116;28;20122;-72
2022/11/12 15:01:18;;;;;;;4.13;2.67;;;;;;;;;;4964700;28;20112;-71
2022/11/12 15:04:14;;;;;;;4.88;2.28;;;;;;;;;;4973569;28;20100;-70
2022/11/12 15:06:59;;;;;;;5.35;2.78;;;;;;;;;;4986910;28;20061;-70
2022/11/12 15:09:44;;;;;;;8.05;3.13;;;;;;;;;;4983999;28;20041;-71
2022/11/12 15:12:33;;;;;;;6.60;3.85;;;;;;;;;;4991814;28;20109;-71
2022/11/12 15:15:21;;;;;;;8.45;4.45;;;;;;;;;;4994213;28;20093;-72
2022/11/12 15:18:19;;;;;;;7.07;4.28;;;;;;;;;;4993628;28;20053;-75
2022/11/12 15:21:21;;;;;;;10.05;3.97;;;;;;;;;;4976324;28;20057;-70
2022/11/12 15:24:30;;;;;;;7.70;4.53;;;;;;;;;;4995403;28;20049;-72
2022/11/12 15:27:36;;;;;;;8.25;4.60;;;;;;;;;;4975283;28;20122;-74
2022/11/12 15:30:30;;;;;;;7.25;4.65;;;;;;;;;;4976170;28;20503;-71
2022/11/12 15:33:21;;;;;;;8.50;4.00;;;;;;;;;;4975388;28;20061;-71
2022/11/12 15:36:17;;;;;;;8.43;4.03;;;;;;;;;;4975952;28;20046;-70
2022/11/12 15:39:02;;;;;;;7.85;4.40;;;;;;;;;;4995067;28;20089;-71
2022/11/12 15:41:47;;;;;;;7.35;4.60;;;;;;;;;;4995209;28;20165;-70
2022/11/12 15:44:34;;;;;;;7.95;4.45;;;;;;;;;;4995339;28;20053;-70
2022/11/12 15:47:22;;;;;;;7.78;4.57;;;;;;;;;;4992248;28;20069;-71
2022/11/12 15:50:23;;;;;;;7.32;4.57;;;;;;;;;;4980270;28;20057;-70
2022/11/12 15:53:07;;;;;;;10.30;4.38;;;;;;;;;;4975176;28;20057;-71
2022/11/12 15:55:52;;;;;;;10.32;4.57;;;;;;;;;;4974254;28;20093;-71
2022/11/12 15:58:39;;;;;;;7.20;4.57;;;;;;;;;;4983358;28;20195;-71
2022/11/12 16:01:23;;;;;;;5.80;3.47;;;;;;;;;;4987495;28;20072;-71
2022/11/12 16:04:10;;;;;;;7.57;4.53;;;;;;;;;;4985212;28;20450;-71
2022/11/12 16:06:55;;;;;;;6.28;4.47;;;;;;;;;;4993995;28;20045;-72
2022/11/12 16:09:39;;;;;;;7.65;4.05;;;;;;;;;;4974396;28;20048;-71
2022/11/12 16:12:24;;;;;;;8.43;4.82;;;;;;;;;;4971802;28;20420;-73
2022/11/12 16:15:17;;;;;;;8.30;5.20;;;;;;;;;;4991857;28;20104;-73
2022/11/12 16:18:03;;;;;;;5.55;3.40;;;;;;;;;;4974388;28;20181;-74
2022/11/12 16:20:50;;;;;;;5.25;3.50;;;;;;;;;;4991159;28;20068;-75
2022/11/12 16:23:35;;;;;;;6.80;4.35;;;;;;;;;;4981517;28;20062;-73
2022/11/12 16:26:26;;;;;;;6.53;4.25;;;;;;;;;;4981768;28;20555;-75
2022/11/12 16:29:14;;;;;;;8.13;5.10;;;;;;;;;;4978299;28;20052;-76
2022/11/12 16:31:58;;;;;;;9.85;5.80;;;;;;;;;;4992219;28;20045;-75
2022/11/12 16:34:44;;;;;;;11.23;6.35;;;;;;;;;;4989719;28;20053;-76
2022/11/12 16:37:29;;;;;;;9.52;5.80;;;;;;;;;;4989001;28;20125;-77
2022/11/12 16:40:20;;;;;;;12.18;6.05;;;;;;;;;;4990940;28;20089;-75
2022/11/12 16:43:04;;;;;;;8.45;5.22;;;;;;;;;;4989578;28;20054;-76
2022/11/12 16:45:49;;;;;;;9.90;6.18;;;;;;;;;;4987090;28;20519;-76
2022/11/12 16:48:33;;;;;;;11.90;6.60;;;;;;;;;;4973161;28;20049;-76
2022/11/12 16:51:20;;;;;;;10.65;6.53;;;;;;;;;;4978985;28;20136;-75
2022/11/12 16:54:04;;;;;;;10.13;5.45;;;;;;;;;;4982939;28;20133;-76
2022/11/12 16:56:50;;;;;;;16.30;9.82;;;;;;;;;;4987389;28;20108;-73
2022/11/12 17:13:51;;;;;;;7.80;4.65;;;;;;;;;;4991022;28;20049;-76
2022/11/12 17:16:35;;;;;;;11.90;6.53;;;;;;;;;;4988639;28;20060;-76
2022/11/12 17:19:21;;;;;;;9.52;6.07;;;;;;;;;;4978841;28;20054;-75
2022/11/12 17:22:06;;;;;;;15.40;5.00;;;;;;;;;;4973466;28;20192;-75
2022/11/12 17:24:50;;;;;;;13.95;7.45;;;;;;;;;;4974083;28;20412;-76
2022/11/12 17:27:35;;;;;;;10.23;5.22;;;;;;;;;;4971967;28;20126;-77
2022/11/12 17:30:19;;;;;;;6.97;4.13;;;;;;;;;;5003609;28;20109;-76
2022/11/12 17:33:04;;;;;;;5.30;3.50;;;;;;;;;;4988941;28;20057;-77
2022/11/12 17:35:52;;;;;;;5.15;3.42;;;;;;;;;;4992820;28;20124;-77
2022/11/12 17:38:37;;;;;;;7.18;3.90;;;;;;;;;;4984400;28;20137;-77
2022/11/12 17:41:23;;;;;;;7.63;4.53;;;;;;;;;;4985912;28;20053;-77
2022/11/12 17:44:11;;;;;;;6.80;4.45;;;;;;;;;;4988741;28;20096;-77
2022/11/12 17:46:56;;;;;;;9.93;5.50;;;;;;;;;;4991062;28;20092;-76
2022/11/12 17:49:41;;;;;;;9.13;5.82;;;;;;;;;;4991363;28;20089;-77
2022/11/12 17:52:29;;;;;;;12.13;8.27;;;;;;;;;;4988343;28;20883;-76